Time;durP1;ratioP1;P1;durP2;ratioP2;P2;SDS_P1;SDS_P2;PMS_P1;PMS_P2;Temp;Humidity;BMP_temperature;BMP_pressure;BME280_temperature;BME280_humidity;BME280_pressure;Samples;Min_cycle;Max_cycle;Signal;HPM_P1;HPM_P2
2022/05/27 03:02:17;;;;;;;0.68;0.50;;;24.80;43.40;;;;;;5203226;23;47884;-59
2022/05/27 03:05:03;;;;;;;0.80;0.50;;;24.80;43.50;;;;;;4894230;28;45510;-59
2022/05/27 03:07:38;;;;;;;0.65;0.50;;;24.80;43.50;;;;;;4895368;28;45510;-57
2022/05/27 03:10:28;;;;;;;0.77;0.60;;;24.70;43.40;;;;;;4892685;28;45412;-62
2022/05/27 03:12:58;;;;;;;1.25;0.60;;;24.80;43.50;;;;;;4858453;29;45214;-60
2022/05/27 03:15:52;;;;;;;0.60;0.50;;;24.80;43.40;;;;;;4877015;29;45549;-61
2022/05/27 03:18:45;;;;;;;0.88;0.50;;;24.70;43.40;;;;;;4853636;29;46354;-61
2022/05/27 03:21:44;;;;;;;0.52;0.52;;;24.70;43.40;;;;;;4868596;29;44989;-57
2022/05/27 03:24:37;;;;;;;1.35;0.52;;;24.70;43.40;;;;;;4859314;29;45068;-59
2022/05/27 03:27:32;;;;;;;1.00;0.60;;;24.70;43.40;;;;;;4865653;29;45031;-61
2022/05/27 03:30:04;;;;;;;0.57;0.50;;;24.70;43.40;;;;;;4875224;29;47069;-59
2022/05/27 03:32:47;;;;;;;0.50;0.50;;;24.70;43.50;;;;;;4875425;29;44963;-60
2022/05/27 03:35:13;;;;;;;0.83;0.60;;;24.70;43.40;;;;;;4869544;29;45662;-58
2022/05/27 03:37:43;;;;;;;0.80;0.50;;;24.70;43.40;;;;;;4881144;29;45445;-60
2022/05/27 03:40:23;;;;;;;0.52;0.40;;;24.70;43.40;;;;;;4830416;29;46108;-59
2022/05/27 03:42:49;;;;;;;0.95;0.52;;;24.70;43.50;;;;;;4878551;29;45103;-59
2022/05/27 03:45:16;;;;;;;0.80;0.60;;;24.70;43.50;;;;;;4865355;29;44959;-59
2022/05/27 03:47:42;;;;;;;0.57;0.50;;;24.70;43.50;;;;;;4880033;29;45555;-59
2022/05/27 03:50:10;;;;;;;0.73;0.70;;;24.70;43.50;;;;;;4880979;28;46190;-57
2022/05/27 03:52:47;;;;;;;0.52;0.30;;;24.70;43.50;;;;;;4877811;29;45245;-58
2022/05/27 03:55:14;;;;;;;0.60;0.50;;;24.60;43.50;;;;;;4878880;29;45479;-58
2022/05/27 03:57:39;;;;;;;0.90;0.50;;;24.70;43.50;;;;;;4880640;29;45485;-59
2022/05/27 04:00:06;;;;;;;1.40;0.60;;;24.70;43.50;;;;;;4878077;29;45225;-61
2022/05/27 04:02:32;;;;;;;0.40;0.40;;;24.70;43.60;;;;;;4860166;29;45164;-59
2022/05/27 04:05:18;;;;;;;0.50;0.40;;;24.70;43.50;;;;;;4866984;29;45421;-59
2022/05/27 04:07:47;;;;;;;0.70;0.60;;;24.60;43.50;;;;;;4883279;29;45420;-58
2022/05/27 04:10:12;;;;;;;0.98;0.68;;;24.60;43.50;;;;;;4882159;29;46173;-59
2022/05/27 04:12:38;;;;;;;0.70;0.70;;;24.60;43.50;;;;;;4881744;29;44955;-58
2022/05/27 04:15:05;;;;;;;0.80;0.60;;;24.60;43.60;;;;;;4880810;29;45122;-59
2022/05/27 04:17:30;;;;;;;0.70;0.50;;;24.60;43.60;;;;;;4878044;29;46215;-57
2022/05/27 04:20:00;;;;;;;2.78;0.60;;;24.60;43.60;;;;;;4893592;28;46200;-61
2022/05/27 04:22:26;;;;;;;0.80;0.60;;;24.60;43.50;;;;;;4898980;28;45470;-59
2022/05/27 04:24:52;;;;;;;1.27;0.50;;;24.60;43.60;;;;;;4905451;28;45289;-58
2022/05/27 04:27:18;;;;;;;1.88;0.40;;;24.60;43.50;;;;;;4897164;28;45334;-60
2022/05/27 04:29:45;;;;;;;0.55;0.55;;;24.60;43.60;;;;;;4899156;28;46012;-57
2022/05/27 04:32:11;;;;;;;0.88;0.60;;;24.60;43.60;;;;;;4891901;28;45609;-59
2022/05/27 04:34:36;;;;;;;0.65;0.32;;;24.60;43.60;;;;;;4899595;28;45030;-60
2022/05/27 04:37:02;;;;;;;0.75;0.40;;;24.60;43.60;;;;;;4902172;28;44968;-60
2022/05/27 04:39:28;;;;;;;0.73;0.43;;;24.60;43.60;;;;;;4899987;28;45773;-55
2022/05/27 04:41:54;;;;;;;0.65;0.50;;;24.60;43.60;;;;;;4887566;28;45210;-57
2022/05/27 04:44:19;;;;;;;0.60;0.40;;;24.60;43.60;;;;;;4898286;28;45146;-60
2022/05/27 04:46:45;;;;;;;0.85;0.52;;;24.60;43.70;;;;;;4900424;28;45258;-59
2022/05/27 04:49:50;;;;;;;0.60;0.60;;;24.60;43.60;;;;;;4897166;28;45415;-56
2022/05/27 04:51:59;;;;;;;1.23;0.70;;;24.60;43.60;;;;;;4900688;28;45528;-59
2022/05/27 04:54:26;;;;;;;0.60;0.60;;;24.60;43.60;;;;;;4895748;28;45493;-57
2022/05/27 04:56:52;;;;;;;0.88;0.45;;;24.60;43.60;;;;;;4897818;28;45558;-59
2022/05/27 04:59:17;;;;;;;0.63;0.50;;;24.60;43.60;;;;;;4887512;28;45442;-59
2022/05/27 05:01:43;;;;;;;1.23;0.60;;;24.60;43.60;;;;;;4871759;28;45557;-58
2022/05/27 05:04:08;;;;;;;1.00;0.50;;;24.60;43.60;;;;;;4902089;28;45498;-60
2022/05/27 05:06:34;;;;;;;0.47;0.47;;;24.60;43.60;;;;;;4898210;28;44887;-59
2022/05/27 05:09:01;;;;;;;0.70;0.50;;;24.60;43.60;;;;;;4893792;28;46447;-59
2022/05/27 05:11:26;;;;;;;0.45;0.38;;;24.60;43.60;;;;;;4895015;28;45309;-60
2022/05/27 05:13:52;;;;;;;0.77;0.50;;;24.60;43.60;;;;;;4899940;28;44685;-60
2022/05/27 05:16:17;;;;;;;0.45;0.43;;;24.60;44.20;;;;;;4895710;28;45190;-61
2022/05/27 05:18:43;;;;;;;0.73;0.65;;;24.60;43.60;;;;;;4895801;28;46019;-58
2022/05/27 05:21:08;;;;;;;1.13;0.60;;;24.60;43.50;;;;;;4896014;28;44615;-57
2022/05/27 05:23:34;;;;;;;0.82;0.70;;;24.70;43.60;;;;;;4880440;28;45066;-59
2022/05/27 05:26:00;;;;;;;0.68;0.50;;;24.70;43.50;;;;;;4899371;28;45286;-59
2022/05/27 05:28:25;;;;;;;0.50;0.50;;;24.70;43.50;;;;;;4897542;28;45882;-61
2022/05/27 05:30:51;;;;;;;0.45;0.40;;;24.70;43.60;;;;;;4889489;28;46387;-60
2022/05/27 05:33:16;;;;;;;1.73;0.80;;;24.70;43.50;;;;;;4896885;28;44953;-58
2022/05/27 05:35:42;;;;;;;0.85;0.60;;;24.70;43.50;;;;;;4892948;28;45491;-58
2022/05/27 05:38:08;;;;;;;0.90;0.70;;;24.70;43.50;;;;;;4896161;28;45215;-60
2022/05/27 05:40:34;;;;;;;0.75;0.50;;;24.70;43.60;;;;;;4896089;28;45029;-60
2022/05/27 05:43:01;;;;;;;1.15;0.68;;;24.70;43.60;;;;;;4892359;28;45721;-60
2022/05/27 05:45:27;;;;;;;1.30;0.60;;;24.60;43.60;;;;;;4895054;28;45562;-59
2022/05/27 05:47:52;;;;;;;0.82;0.60;;;24.70;43.70;;;;;;4895439;28;45973;-58
2022/05/27 05:50:18;;;;;;;1.75;0.50;;;24.60;43.60;;;;;;4900130;28;45187;-59
2022/05/27 05:52:44;;;;;;;0.75;0.50;;;24.70;43.70;;;;;;4896587;28;44719;-61
2022/05/27 05:55:12;;;;;;;0.70;0.50;;;24.60;43.60;;;;;;4886127;29;45409;-60
2022/05/27 05:57:42;;;;;;;0.52;0.52;;;24.70;43.70;;;;;;4893158;28;46162;-60
2022/05/27 06:00:13;;;;;;;1.15;0.70;;;24.60;43.60;;;;;;4894860;28;45781;-60
2022/05/27 06:02:39;;;;;;;0.95;0.45;;;24.60;43.60;;;;;;4880399;29;45012;-59
2022/05/27 06:05:05;;;;;;;0.95;0.65;;;24.70;43.70;;;;;;4899705;28;45083;-63
2022/05/27 06:07:31;;;;;;;0.75;0.47;;;24.60;43.60;;;;;;4893133;28;45467;-59
2022/05/27 06:09:57;;;;;;;0.47;0.47;;;24.70;43.70;;;;;;4887755;28;45230;-60
2022/05/27 06:12:23;;;;;;;1.67;0.70;;;24.60;43.60;;;;;;4894810;28;44794;-57
2022/05/27 06:14:50;;;;;;;2.88;0.68;;;24.70;43.70;;;;;;4894389;28;45448;-59
2022/05/27 06:17:16;;;;;;;0.80;0.80;;;24.70;43.60;;;;;;4878055;29;45471;-60
2022/05/27 06:19:41;;;;;;;1.35;0.73;;;24.70;43.50;;;;;;4898146;28;45372;-60
2022/05/27 06:22:07;;;;;;;0.50;0.50;;;24.80;43.50;;;;;;4898136;28;44829;-59
2022/05/27 06:24:33;;;;;;;1.38;0.70;;;24.80;43.30;;;;;;4900005;28;45367;-58
2022/05/27 06:26:58;;;;;;;1.02;0.80;;;24.80;43.30;;;;;;4896369;28;46183;-60
2022/05/27 06:34:53;;;;;;;0.65;0.52;;;24.90;43.20;;;;;;4899996;28;45956;-59
2022/05/27 06:37:19;;;;;;;1.17;0.73;;;24.90;43.20;;;;;;4895612;28;46919;-57
2022/05/27 06:39:45;;;;;;;1.10;0.57;;;24.90;43.10;;;;;;4885516;28;45187;-58
2022/05/27 06:42:11;;;;;;;0.60;0.57;;;25.00;43.10;;;;;;4882939;28;45272;-56
2022/05/27 06:44:37;;;;;;;0.85;0.50;;;25.00;43.10;;;;;;4900771;28;45175;-58
2022/05/27 06:47:04;;;;;;;1.13;0.50;;;25.00;43.10;;;;;;4899979;28;46425;-55
2022/05/27 06:49:29;;;;;;;0.65;0.63;;;25.00;43.10;;;;;;4901895;28;45714;-57
2022/05/27 06:51:55;;;;;;;0.85;0.63;;;25.00;43.10;;;;;;4904775;28;45085;-58
2022/05/27 06:54:21;;;;;;;1.35;0.80;;;25.00;43.10;;;;;;4904350;28;45606;-57
2022/05/27 06:56:53;;;;;;;1.00;0.65;;;25.00;43.10;;;;;;4900064;28;47081;-57
2022/05/27 06:59:19;;;;;;;0.77;0.60;;;25.00;43.10;;;;;;4896583;28;45436;-59
2022/05/27 07:01:45;;;;;;;0.70;0.50;;;25.00;43.10;;;;;;4901740;28;45228;-62
2022/05/27 07:04:11;;;;;;;0.85;0.70;;;25.00;43.10;;;;;;4883228;29;44722;-56
2022/05/27 07:06:41;;;;;;;0.98;0.60;;;25.00;43.10;;;;;;4898198;28;46051;-58
2022/05/27 07:09:07;;;;;;;0.90;0.60;;;25.00;43.10;;;;;;4891573;29;45620;-57
2022/05/27 07:11:36;;;;;;;3.35;0.60;;;25.00;43.10;;;;;;4902729;28;45158;-58
2022/05/27 07:14:02;;;;;;;0.52;0.52;;;25.00;43.10;;;;;;4904566;28;45302;-57
2022/05/27 07:16:28;;;;;;;1.02;0.70;;;25.00;43.10;;;;;;4899053;28;46001;-57
2022/05/27 07:18:56;;;;;;;0.77;0.60;;;25.10;43.10;;;;;;4900507;28;45233;-57
2022/05/27 07:21:22;;;;;;;0.90;0.55;;;25.10;43.10;;;;;;4898089;28;45383;-58
2022/05/27 07:23:48;;;;;;;0.70;0.70;;;25.10;43.20;;;;;;4901642;28;45965;-59
2022/05/27 07:26:13;;;;;;;1.55;0.65;;;25.10;43.70;;;;;;4903185;28;45928;-59
2022/05/27 07:28:39;;;;;;;1.08;0.70;;;25.10;43.10;;;;;;4899366;28;45586;-61
2022/05/27 07:31:05;;;;;;;1.58;0.77;;;25.10;43.10;;;;;;4898124;28;44682;-59
2022/05/27 07:33:30;;;;;;;0.85;0.60;;;25.10;43.10;;;;;;4902129;28;45689;-59
2022/05/27 07:35:56;;;;;;;0.98;0.73;;;25.10;43.10;;;;;;4897965;28;45375;-59
2022/05/27 07:38:22;;;;;;;1.48;0.82;;;25.10;43.10;;;;;;4898308;28;45194;-60
2022/05/27 07:40:47;;;;;;;1.42;0.80;;;25.10;43.10;;;;;;4897209;28;45744;-58
2022/05/27 07:43:13;;;;;;;0.75;0.70;;;25.10;43.10;;;;;;4886492;28;44790;-60
2022/05/27 07:45:40;;;;;;;0.60;0.60;;;25.10;43.00;;;;;;4885901;28;46155;-58
2022/05/27 07:48:06;;;;;;;0.85;0.60;;;25.20;43.10;;;;;;4899753;28;44972;-58
2022/05/27 07:50:32;;;;;;;0.65;0.65;;;25.20;43.10;;;;;;4889004;29;45616;-59
2022/05/27 07:52:58;;;;;;;1.00;0.80;;;25.20;43.10;;;;;;4899205;28;45144;-58
2022/05/27 07:55:23;;;;;;;2.42;1.00;;;25.20;43.00;;;;;;4888412;28;46003;-59
2022/05/27 07:57:49;;;;;;;0.88;0.63;;;25.10;43.00;;;;;;4897808;28;45202;-57
2022/05/27 08:00:20;;;;;;;1.35;0.88;;;25.10;42.90;;;;;;4902203;28;45230;-59
2022/05/27 08:02:46;;;;;;;1.77;0.68;;;25.20;43.00;;;;;;4899875;28;45566;-60
2022/05/27 08:05:19;;;;;;;1.15;0.70;;;25.10;42.90;;;;;;4902593;28;45890;-58
2022/05/27 08:07:45;;;;;;;2.05;0.80;;;25.10;42.90;;;;;;4898681;28;44890;-60
2022/05/27 08:10:12;;;;;;;0.77;0.60;;;25.10;43.00;;;;;;4892425;28;45516;-59
2022/05/27 08:12:37;;;;;;;0.70;0.70;;;25.20;43.00;;;;;;4896852;28;45509;-58
2022/05/27 08:15:04;;;;;;;0.98;0.70;;;25.20;42.90;;;;;;4898823;28;46982;-58
2022/05/27 08:17:29;;;;;;;1.15;0.80;;;25.20;42.90;;;;;;4901745;28;45029;-59
2022/05/27 08:19:55;;;;;;;0.65;0.55;;;25.20;42.90;;;;;;4902333;28;45620;-56
2022/05/27 08:22:20;;;;;;;0.73;0.63;;;25.20;43.00;;;;;;4902645;28;45279;-57
2022/05/27 08:24:46;;;;;;;0.77;0.60;;;25.20;43.00;;;;;;4899999;28;47125;-59
2022/05/27 08:27:12;;;;;;;0.82;0.70;;;25.20;43.00;;;;;;4898107;28;45134;-59
2022/05/27 08:29:37;;;;;;;1.63;0.70;;;25.20;43.00;;;;;;4874180;28;45343;-59
2022/05/27 08:32:04;;;;;;;2.90;0.80;;;25.20;42.90;;;;;;4896594;28;45618;-59
2022/05/27 08:40:01;;;;;;;1.17;0.80;;;25.30;42.90;;;;;;4887729;28;45668;-60
2022/05/27 08:42:38;;;;;;;0.68;0.60;;;25.30;42.90;;;;;;4878874;29;44735;-57
2022/05/27 08:45:26;;;;;;;1.65;0.82;;;25.30;42.90;;;;;;4868399;29;45943;-59
2022/05/27 08:48:01;;;;;;;0.73;0.63;;;25.30;42.90;;;;;;4890582;28;45600;-58
2022/05/27 08:50:43;;;;;;;1.35;0.70;;;25.30;42.90;;;;;;4865205;29;45420;-57
2022/05/27 08:53:22;;;;;;;1.58;0.80;;;25.30;42.90;;;;;;4880892;29;46643;-58
2022/05/27 08:59:47;;;;;;;0.57;0.57;;;25.30;43.00;;;;;;4887913;28;45329;-55
2022/05/27 09:01:41;;;;;;;1.73;0.80;;;25.30;43.00;;;;;;4881633;28;45453;-56
2022/05/27 09:04:17;;;;;;;1.33;0.60;;;25.30;43.00;;;;;;4904472;28;45056;-57
2022/05/27 09:06:46;;;;;;;2.72;0.70;;;25.30;43.00;;;;;;4884830;28;45327;-58
2022/05/27 09:09:19;;;;;;;1.65;1.00;;;25.40;43.00;;;;;;4880711;29;45554;-58
2022/05/27 09:12:09;;;;;;;0.73;0.73;;;25.40;42.90;;;;;;4881217;28;45392;-58
2022/05/27 09:14:35;;;;;;;0.60;0.60;;;25.40;43.00;;;;;;4896648;28;44859;-57
2022/05/27 09:17:06;;;;;;;0.70;0.70;;;25.40;42.90;;;;;;4864829;29;45525;-57
2022/05/27 09:19:49;;;;;;;1.52;0.77;;;25.40;42.80;;;;;;4901047;28;45571;-58
2022/05/27 09:22:23;;;;;;;1.02;0.70;;;25.40;42.80;;;;;;4887670;28;44790;-59
2022/05/27 09:25:01;;;;;;;1.75;0.70;;;25.40;42.90;;;;;;4900796;28;45065;-59
2022/05/27 09:27:44;;;;;;;0.77;0.77;;;25.40;43.00;;;;;;4901647;28;45271;-59
2022/05/27 09:30:11;;;;;;;0.60;0.60;;;25.40;42.90;;;;;;4897839;28;45106;-59
2022/05/27 09:32:54;;;;;;;0.70;0.52;;;25.40;42.90;;;;;;4900618;28;45310;-59
2022/05/27 09:35:44;;;;;;;0.82;0.80;;;25.40;42.90;;;;;;4882833;29;45263;-60
2022/05/27 09:38:18;;;;;;;1.05;0.70;;;25.40;43.00;;;;;;4882068;28;45905;-59
2022/05/27 09:40:53;;;;;;;1.17;0.70;;;25.40;42.90;;;;;;4886968;28;44704;-59
2022/05/27 09:43:29;;;;;;;1.33;0.65;;;25.40;42.90;;;;;;4906615;28;45300;-59
2022/05/27 09:45:58;;;;;;;1.27;0.73;;;25.40;42.90;;;;;;4873155;28;45555;-58
2022/05/27 09:48:25;;;;;;;1.15;0.70;;;25.40;42.90;;;;;;4885296;28;47134;-57
2022/05/27 09:50:51;;;;;;;0.88;0.80;;;25.40;42.90;;;;;;4892466;28;45266;-60
2022/05/27 09:53:28;;;;;;;0.82;0.73;;;25.40;42.90;;;;;;4882429;29;45269;-58
2022/05/27 09:56:04;;;;;;;0.98;0.75;;;25.50;43.00;;;;;;4899887;28;44889;-59
2022/05/27 09:58:36;;;;;;;1.08;0.70;;;25.40;42.90;;;;;;4880168;29;45825;-59
2022/05/27 10:01:25;;;;;;;2.43;0.70;;;25.50;43.00;;;;;;4905093;28;44859;-60
2022/05/27 10:04:14;;;;;;;2.72;0.88;;;25.60;42.80;;;;;;4899537;28;45456;-57
2022/05/27 10:06:40;;;;;;;0.88;0.88;;;25.70;42.70;;;;;;4893049;28;45845;-61
2022/05/27 10:09:08;;;;;;;1.35;0.77;;;25.70;42.60;;;;;;4893270;28;46052;-60
2022/05/27 10:11:34;;;;;;;3.55;0.80;;;25.70;42.50;;;;;;4900648;28;45778;-59
2022/05/27 10:14:06;;;;;;;0.80;0.80;;;25.70;42.40;;;;;;4909096;28;45010;-59
2022/05/27 10:16:33;;;;;;;1.70;0.70;;;25.70;42.40;;;;;;4902894;28;45350;-61
2022/05/27 10:19:21;;;;;;;0.85;0.80;;;25.80;42.30;;;;;;4904440;28;45978;-58
2022/05/27 10:21:50;;;;;;;0.90;0.80;;;25.80;42.30;;;;;;4903820;28;44594;-59
2022/05/27 10:24:24;;;;;;;1.08;0.98;;;25.80;42.30;;;;;;4901813;28;45174;-60
2022/05/27 10:27:17;;;;;;;1.45;0.75;;;25.80;42.30;;;;;;4886655;28;45668;-59
2022/05/27 10:29:55;;;;;;;;;;;25.80;42.20;;;;;;4902173;28;45125;-58
2022/05/27 10:32:41;;;;;;;1.58;1.00;;;25.80;42.30;;;;;;4903464;28;45239;-58
2022/05/27 10:35:30;;;;;;;1.42;0.80;;;25.80;42.20;;;;;;4907517;28;45313;-58
2022/05/27 10:38:10;;;;;;;0.90;0.88;;;25.80;42.10;;;;;;4901905;28;45403;-59
2022/05/27 10:40:53;;;;;;;1.20;1.00;;;25.80;42.20;;;;;;4900463;28;45974;-60
2022/05/27 10:43:54;;;;;;;0.80;0.80;;;25.80;42.10;;;;;;4880409;29;44751;-59
2022/05/27 10:46:22;;;;;;;1.70;0.70;;;25.80;42.10;;;;;;4906959;28;45443;-58
2022/05/27 10:49:32;;;;;;;0.95;0.80;;;25.70;42.10;;;;;;4902392;28;44765;-58
2022/05/27 10:52:04;;;;;;;1.10;1.00;;;25.80;42.20;;;;;;4865163;29;46012;-58
2022/05/27 10:54:45;;;;;;;2.33;1.23;;;25.70;42.10;;;;;;4879790;29;45302;-58
2022/05/27 11:03:30;;;;;;;1.00;0.77;;;25.70;42.00;;;;;;4884176;28;46838;-54
2022/05/27 11:06:08;;;;;;;2.00;1.00;;;25.70;42.00;;;;;;4888461;29;45268;-58
2022/05/27 11:08:33;;;;;;;1.17;0.80;;;25.80;42.10;;;;;;4886524;29;44741;-57
2022/05/27 11:11:15;;;;;;;1.10;1.00;;;25.80;42.10;;;;;;4887642;28;45341;-55
2022/05/27 11:16:49;;;;;;;1.48;1.00;;;25.80;42.20;;;;;;4889071;28;45633;-57
2022/05/27 11:19:14;;;;;;;1.40;1.20;;;25.70;42.10;;;;;;4904070;28;45567;-57
2022/05/27 11:21:44;;;;;;;1.25;0.93;;;25.80;42.20;;;;;;4905774;28;45273;-60
2022/05/27 11:24:14;;;;;;;2.33;1.10;;;25.80;42.10;;;;;;4886740;29;46234;-55
2022/05/27 11:26:55;;;;;;;1.95;1.10;;;25.80;42.20;;;;;;4888799;28;45241;-56
2022/05/27 11:29:54;;;;;;;1.20;0.90;;;25.80;42.20;;;;;;4888718;28;44959;-56
2022/05/27 11:32:53;;;;;;;1.25;0.80;;;25.80;42.20;;;;;;4897412;28;44930;-54
2022/05/27 11:35:44;;;;;;;1.33;1.00;;;25.80;42.20;;;;;;4897179;28;47189;-57
2022/05/27 11:38:37;;;;;;;0.88;0.88;;;25.80;42.30;;;;;;4885874;29;45292;-56
2022/05/27 11:41:18;;;;;;;;;;;25.80;42.10;;;;;;4898707;28;45573;-54
2022/05/27 11:43:46;;;;;;;2.55;0.80;;;25.80;42.30;;;;;;4905617;28;45373;-53
2022/05/27 11:46:31;;;;;;;2.05;1.58;;;25.80;42.20;;;;;;4884742;28;45937;-53
2022/05/27 11:49:35;;;;;;;1.38;1.00;;;25.80;42.20;;;;;;4899547;28;45212;-56
2022/05/27 11:52:24;;;;;;;2.13;1.08;;;25.80;42.10;;;;;;4874009;29;45483;-56
2022/05/27 11:55:05;;;;;;;1.23;1.08;;;25.80;42.10;;;;;;4884326;28;45631;-57
2022/05/27 11:57:41;;;;;;;2.30;1.13;;;25.80;42.80;;;;;;4906646;28;46232;-57
2022/05/27 12:00:11;;;;;;;2.25;1.17;;;25.80;42.20;;;;;;4899408;28;45243;-60
2022/05/27 12:02:46;;;;;;;1.33;1.23;;;25.80;42.20;;;;;;4898510;28;44868;-56
2022/05/27 12:05:16;;;;;;;1.95;1.17;;;25.80;42.20;;;;;;4899910;28;45218;-57
2022/05/27 12:08:04;;;;;;;1.30;0.95;;;25.80;42.30;;;;;;4884836;28;46098;-58
2022/05/27 12:10:29;;;;;;;1.33;1.13;;;25.80;42.40;;;;;;4884792;28;45274;-60
2022/05/27 12:13:19;;;;;;;1.27;1.15;;;25.80;42.40;;;;;;4897149;28;45295;-57
2022/05/27 12:16:01;;;;;;;2.17;1.48;;;25.80;42.40;;;;;;4885833;28;44818;-59
2022/05/27 12:19:01;;;;;;;1.40;1.00;;;25.80;42.40;;;;;;4900135;28;45308;-62
2022/05/27 12:21:28;;;;;;;1.40;1.30;;;25.80;42.50;;;;;;4884078;28;45033;-58
2022/05/27 12:23:58;;;;;;;1.38;1.13;;;25.80;42.40;;;;;;4891256;28;44847;-60
2022/05/27 12:26:32;;;;;;;2.83;1.33;;;25.90;42.50;;;;;;4884507;29;45736;-58
2022/05/27 12:28:59;;;;;;;1.70;1.10;;;25.90;42.50;;;;;;4885010;29;46253;-58
2022/05/27 12:31:24;;;;;;;1.90;1.20;;;25.90;42.50;;;;;;4896137;28;44718;-59
2022/05/27 12:33:50;;;;;;;1.50;1.13;;;25.90;42.50;;;;;;4885497;28;45566;-55
2022/05/27 12:36:23;;;;;;;1.25;1.08;;;25.90;42.50;;;;;;4902679;28;44811;-56
2022/05/27 12:38:49;;;;;;;;;;;25.90;42.40;;;;;;4895361;28;45921;-59
2022/05/27 12:41:35;;;;;;;2.78;1.02;;;25.90;42.50;;;;;;4900540;28;45206;-59
2022/05/27 12:44:22;;;;;;;2.50;1.42;;;25.90;42.50;;;;;;4887543;28;44739;-58
2022/05/27 12:46:52;;;;;;;1.45;1.35;;;26.00;42.50;;;;;;4900266;28;44812;-59
2022/05/27 12:49:32;;;;;;;0.93;0.93;;;25.90;42.40;;;;;;4884839;29;46353;-60
2022/05/27 12:51:58;;;;;;;1.00;1.00;;;26.00;42.40;;;;;;4907204;28;45281;-61
2022/05/27 12:54:42;;;;;;;1.70;1.10;;;26.00;42.50;;;;;;4888165;29;44628;-61
2022/05/27 13:03:08;;;;;;;;;;;26.00;42.30;;;;;;4903549;28;44655;-61
2022/05/27 13:06:07;;;;;;;;;;;26.00;42.40;;;;;;4903887;28;45351;-58
2022/05/27 13:08:42;;;;;;;;;;;26.00;42.50;;;;;;4850894;28;45363;-62
2022/05/27 13:11:15;;;;;;;;;;;26.00;42.50;;;;;;4893145;28;46134;-57
2022/05/27 13:13:40;;;;;;;;;;;25.90;42.50;;;;;;4894962;28;44791;-61
2022/05/27 13:16:10;;;;;;;;;;;25.90;42.40;;;;;;4896473;28;44771;-58
2022/05/27 13:18:37;;;;;;;;;;;25.90;42.40;;;;;;4895233;28;45859;-59
2022/05/27 13:21:09;;;;;;;;;;;25.90;42.50;;;;;;4896217;28;46277;-60
2022/05/27 13:23:35;;;;;;;;;;;25.90;42.50;;;;;;4899138;28;45565;-61
2022/05/27 13:26:10;;;;;;;;;;;25.90;42.50;;;;;;4894054;28;45274;-60
2022/05/27 13:28:36;;;;;;;;;;;25.90;42.50;;;;;;4896618;28;44772;-58
2022/05/27 13:31:02;;;;;;;;;;;25.90;42.50;;;;;;4897809;28;45684;-59
2022/05/27 13:33:29;;;;;;;;;;;25.90;42.50;;;;;;4897722;28;45267;-64
2022/05/27 13:35:55;;;;;;;;;;;25.90;42.40;;;;;;4877982;28;45274;-58
2022/05/27 13:38:23;;;;;;;;;;;25.90;42.30;;;;;;4897159;28;45029;-58
2022/05/27 13:40:48;;;;;;;;;;;25.90;42.30;;;;;;4896715;28;47020;-60
2022/05/27 13:43:17;;;;;;;;;;;25.90;42.30;;;;;;4897118;28;44907;-58
2022/05/27 13:45:42;;;;;;;;;;;25.90;42.40;;;;;;4897773;28;45304;-62
2022/05/27 13:48:28;;;;;;;;;;;25.90;42.40;;;;;;4896422;28;46284;-62
2022/05/27 13:51:10;;;;;;;;;;;25.90;42.40;;;;;;4878222;28;45998;-60
2022/05/27 13:53:36;;;;;;;;;;;25.90;42.40;;;;;;4897848;28;45485;-59
2022/05/27 13:56:04;;;;;;;;;;;25.90;42.30;;;;;;4895314;28;45407;-61
2022/05/27 13:58:30;;;;;;;;;;;25.90;42.40;;;;;;4896049;28;45378;-58
2022/05/27 14:00:59;;;;;;;;;;;25.90;42.30;;;;;;4894289;28;45505;-58
2022/05/27 14:03:39;;;;;;;;;;;25.90;42.30;;;;;;4897286;28;45444;-59
2022/05/27 14:06:05;;;;;;;;;;;25.90;42.30;;;;;;4893927;28;45467;-60
2022/05/27 14:08:43;;;;;;;;;;;25.90;42.40;;;;;;4894279;28;45271;-62
2022/05/27 14:11:15;;;;;;;;;;;25.90;42.30;;;;;;4895146;28;46091;-61
2022/05/27 14:13:41;;;;;;;;;;;25.90;42.30;;;;;;4898389;28;44914;-60
2022/05/27 14:16:10;;;;;;;;;;;25.90;42.30;;;;;;4895972;28;45427;-59
2022/05/27 14:18:36;;;;;;;;;;;25.90;42.40;;;;;;4895553;28;45114;-61
2022/05/27 14:23:46;;;;;;;;;;;25.90;42.40;;;;;;4896561;28;45265;-61
2022/05/27 14:26:12;;;;;;;;;;;25.90;42.30;;;;;;4896486;28;45349;-59
2022/05/27 14:28:40;;;;;;;;;;;25.90;42.30;;;;;;4895570;28;45230;-59
2022/05/27 14:31:27;;;;;;;;;;;25.90;42.30;;;;;;4878522;28;46203;-58
2022/05/27 14:33:53;;;;;;;;;;;25.90;42.40;;;;;;4894751;28;45302;-58
2022/05/27 14:36:20;;;;;;;;;;;25.90;42.30;;;;;;4894071;28;45259;-58
2022/05/27 14:38:47;;;;;;;;;;;25.90;42.40;;;;;;4893536;28;44910;-61
2022/05/27 14:41:22;;;;;;;;;;;25.90;42.40;;;;;;4894535;28;45122;-61
2022/05/27 14:43:53;;;;;;;;;;;25.90;42.40;;;;;;4895368;28;45342;-59
2022/05/27 14:46:18;;;;;;;;;;;25.90;42.40;;;;;;4896515;28;45520;-57
2022/05/27 14:48:44;;;;;;;;;;;25.90;42.40;;;;;;4895042;28;46056;-61
2022/05/27 14:51:14;;;;;;;;;;;25.90;43.00;;;;;;4896056;28;46076;-60
2022/05/27 14:53:39;;;;;;;;;;;25.90;42.50;;;;;;4897619;28;45270;-62
2022/05/27 14:56:05;;;;;;;;;;;25.90;42.40;;;;;;4895848;28;45438;-58
2022/05/27 14:58:34;;;;;;;;;;;25.90;42.40;;;;;;4896063;28;45273;-59
2022/05/27 15:01:00;;;;;;;;;;;25.90;42.40;;;;;;4883137;28;47055;-59
2022/05/27 15:03:27;;;;;;;;;;;25.80;42.30;;;;;;4896944;28;45250;-62
2022/05/27 15:05:52;;;;;;;;;;;25.80;42.30;;;;;;4898120;28;44903;-61
2022/05/27 15:08:18;;;;;;;;;;;25.80;42.30;;;;;;4883234;28;46169;-59
2022/05/27 15:10:43;;;;;;;;;;;25.80;42.20;;;;;;4899038;28;45921;-60
2022/05/27 15:13:28;;;;;;;;;;;25.90;42.30;;;;;;4865960;28;44926;-60
2022/05/27 15:16:09;;;;;;;;;;;25.90;42.40;;;;;;4901428;28;45242;-59
2022/05/27 15:18:40;;;;;;;;;;;25.80;42.50;;;;;;4899658;28;45603;-58
2022/05/27 15:21:06;;;;;;;;;;;25.80;42.60;;;;;;4896468;28;46063;-61
2022/05/27 15:23:35;;;;;;;;;;;25.80;42.70;;;;;;4899802;28;45069;-60
2022/05/27 15:34:24;;;;;;;;;;;25.80;42.90;;;;;;4899655;28;45326;-55
2022/05/27 15:36:50;;;;;;;;;;;25.80;43.00;;;;;;4897146;28;45083;-60
2022/05/27 15:39:17;;;;;;;;;;;25.80;43.00;;;;;;4900554;28;45425;-60
2022/05/27 15:41:43;;;;;;;;;;;25.70;42.90;;;;;;4901314;28;45977;-57
2022/05/27 15:44:08;;;;;;;;;;;25.70;42.90;;;;;;4892218;28;44690;-62
2022/05/27 15:46:34;;;;;;;;;;;25.80;43.00;;;;;;4898572;28;45188;-59
2022/05/27 15:49:00;;;;;;;;;;;25.70;43.00;;;;;;4898560;28;45017;-58
2022/05/27 15:51:25;;;;;;;;;;;25.70;43.10;;;;;;4895272;28;46195;-65
2022/05/27 15:53:51;;;;;;;;;;;25.70;43.10;;;;;;4894955;28;45527;-60
2022/05/27 15:56:16;;;;;;;;;;;25.70;43.10;;;;;;4896301;28;46771;-59
2022/05/27 15:58:42;;;;;;;;;;;25.70;43.10;;;;;;4893567;28;45408;-61
2022/05/27 16:01:08;;;;;;;;;;;25.70;43.10;;;;;;4892834;28;47286;-60
2022/05/27 16:03:33;;;;;;;;;;;25.70;43.10;;;;;;4893265;28;45251;-61
2022/05/27 16:06:00;;;;;;;;;;;25.70;43.20;;;;;;4897254;28;45314;-58
2022/05/27 16:08:26;;;;;;;;;;;25.70;43.80;;;;;;4898684;28;45656;-59
2022/05/27 16:10:52;;;;;;;;;;;25.70;43.20;;;;;;4897139;28;46169;-61
2022/05/27 16:13:17;;;;;;;;;;;25.70;43.30;;;;;;4874899;28;45705;-59
2022/05/27 16:17:50;;;;;;;;;;;25.70;43.20;;;;;;4893267;28;45018;-59
2022/05/27 16:18:28;;;;;;;;;;;25.70;43.20;;;;;;4891429;28;45449;-62
2022/05/27 16:20:54;;;;;;;;;;;25.70;43.20;;;;;;4894177;28;45157;-60
2022/05/27 16:23:19;;;;;;;;;;;25.70;43.20;;;;;;4891244;28;45177;-60
2022/05/27 16:25:45;;;;;;;;;;;25.70;43.30;;;;;;4895190;28;44954;-59
2022/05/27 16:28:10;;;;;;;;;;;25.70;43.20;;;;;;4895629;28;44828;-61
2022/05/27 16:30:37;;;;;;;;;;;25.70;43.30;;;;;;4894135;28;46968;-62
2022/05/27 16:33:02;;;;;;;;;;;25.70;43.30;;;;;;4894464;28;45502;-61
2022/05/27 16:35:28;;;;;;;;;;;25.60;43.30;;;;;;4895722;28;45012;-59
2022/05/27 16:37:54;;;;;;;;;;;25.60;43.30;;;;;;4891732;28;45812;-59
2022/05/27 16:40:20;;;;;;;;;;;25.60;43.50;;;;;;4893449;28;45522;-60
2022/05/27 16:42:45;;;;;;;;;;;25.60;43.40;;;;;;4892255;28;44691;-61
2022/05/27 16:45:11;;;;;;;;;;;25.60;43.50;;;;;;4896070;28;45462;-59
2022/05/27 16:47:37;;;;;;;;;;;25.60;43.40;;;;;;4898442;28;45678;-58
2022/05/27 16:50:03;;;;;;;;;;;25.60;43.50;;;;;;4897406;28;45855;-55
2022/05/27 16:52:29;;;;;;;;;;;25.60;43.40;;;;;;4905636;28;45502;-58
2022/05/27 16:54:54;;;;;;;;;;;25.60;43.40;;;;;;4897888;28;45510;-57
2022/05/27 16:57:20;;;;;;;;;;;25.60;43.40;;;;;;4898591;28;44902;-59
2022/05/27 16:59:45;;;;;;;;;;;25.60;43.40;;;;;;4898966;28;45047;-59
2022/05/27 17:02:11;;;;;;;;;;;25.70;43.50;;;;;;4894901;28;45318;-58
2022/05/27 17:04:37;;;;;;;;;;;25.70;43.50;;;;;;4884722;28;44940;-59
2022/05/27 17:07:03;;;;;;;;;;;25.70;43.40;;;;;;4900665;28;45101;-58
2022/05/27 17:09:28;;;;;;;;;;;25.70;43.40;;;;;;4900364;28;45731;-58
2022/05/27 17:11:54;;;;;;;;;;;25.70;43.30;;;;;;4899722;28;45608;-59
2022/05/27 17:14:19;;;;;;;;;;;25.70;43.40;;;;;;4902986;28;45550;-59